Time;durP1;ratioP1;P1;durP2;ratioP2;P2;SDS_P1;SDS_P2;PMS_P1;PMS_P2;Temp;Humidity;BMP_temperature;BMP_pressure;BME280_temperature;BME280_humidity;BME280_pressure;Samples;Min_cycle;Max_cycle;Signal;HPM_P1;HPM_P2
2023/11/12 00:01:14;;;;;;;36.00;27.00;;;;;;;5.37;100.00;95296.38;107166;1265;138150;-87
2023/11/12 00:04:01;;;;;;;37.60;27.00;;;;;;;5.34;100.00;95295.46;107136;1277;22557;-87
2023/11/12 00:06:27;;;;;;;38.70;29.30;;;;;;;5.34;100.00;95297.33;107152;1276;138350;-87
2023/11/12 00:08:52;;;;;;;35.60;27.20;;;;;;;5.32;100.00;95300.98;107236;1277;22529;-87
2023/11/12 00:11:19;;;;;;;38.80;28.90;;;;;;;5.30;100.00;95300.95;107116;1276;139343;-87
2023/11/12 00:13:46;;;;;;;45.80;30.30;;;;;;;5.29;100.00;95303.15;110320;1276;23069;-88
2023/11/12 00:16:12;;;;;;;42.30;28.60;;;;;;;5.23;100.00;95303.60;110361;1277;22213;-88
2023/11/12 00:18:39;;;;;;;37.30;28.00;;;;;;;5.21;100.00;95308.83;110273;1273;139107;-88
2023/11/12 00:21:05;;;;;;;42.40;29.40;;;;;;;5.19;100.00;95309.73;107772;1276;24475;-86
2023/11/12 00:23:31;;;;;;;41.30;28.80;;;;;;;5.17;100.00;95309.34;107194;1276;138644;-87
2023/11/12 00:25:57;;;;;;;41.90;29.80;;;;;;;5.15;100.00;95310.86;107251;1272;24334;-87
2023/11/12 00:28:23;;;;;;;47.60;33.70;;;;;;;5.14;100.00;95311.98;107273;1277;23000;-87
2023/11/12 00:30:49;;;;;;;31.60;23.00;;;;;;;5.13;100.00;95311.31;107171;1274;138794;-87
2023/11/12 00:33:15;;;;;;;46.90;32.70;;;;;;;5.12;100.00;95308.84;107271;1276;22633;-87
2023/11/12 00:35:41;;;;;;;48.50;33.70;;;;;;;5.11;100.00;95313.07;107067;1276;138539;-87
2023/11/12 00:38:07;;;;;;;47.00;34.80;;;;;;;5.10;100.00;95314.36;107300;1270;22534;-87
2023/11/12 00:40:33;;;;;;;42.10;31.10;;;;;;;5.10;100.00;95318.16;107238;1276;22551;-87
2023/11/12 00:42:59;;;;;;;42.30;30.10;;;;;;;5.09;100.00;95320.16;107157;1277;138362;-87
2023/11/12 00:45:25;;;;;;;36.80;27.10;;;;;;;5.08;100.00;95322.05;107214;1277;22527;-87
2023/11/12 00:47:51;;;;;;;40.20;29.20;;;;;;;5.05;100.00;95322.99;107149;1277;140287;-87
2023/11/12 00:50:17;;;;;;;40.80;29.90;;;;;;;5.04;100.00;95321.02;107213;1277;22534;-87
2023/11/12 00:52:43;;;;;;;39.10;27.20;;;;;;;5.06;100.00;95326.98;107187;1268;23901;-87
2023/11/12 00:55:09;;;;;;;36.00;24.30;;;;;;;5.07;100.00;95324.14;107051;1277;138458;-87
2023/11/12 00:57:35;;;;;;;32.20;22.90;;;;;;;5.03;100.00;95323.86;107314;1277;25125;-87
2023/11/12 01:00:04;;;;;;;36.30;24.00;;;;;;;5.01;100.00;95326.91;107155;1277;138851;-87
2023/11/12 01:02:30;;;;;;;35.50;25.30;;;;;;;5.00;100.00;95321.90;107290;1276;22683;-86
2023/11/12 01:04:56;;;;;;;36.60;25.70;;;;;;;5.00;100.00;95328.91;107289;1276;25489;-87
2023/11/12 01:07:22;;;;;;;33.70;24.10;;;;;;;5.00;100.00;95330.48;107273;1276;22551;-87
2023/11/12 01:09:50;;;;;;;27.70;22.10;;;;;;;4.99;100.00;95334.71;107316;1272;22538;-86
2023/11/12 01:12:21;;;;;;;27.00;19.50;;;;;;;4.94;100.00;95333.85;107160;1262;138986;-87
2023/11/12 01:14:47;;;;;;;28.90;21.60;;;;;;;4.89;100.00;95339.11;107284;1275;24210;-87
2023/11/12 01:17:13;;;;;;;23.70;18.50;;;;;;;4.87;100.00;95340.16;107184;1276;139822;-87
2023/11/12 01:19:39;;;;;;;24.40;17.20;;;;;;;4.87;100.00;95339.82;107331;1269;25262;-87
2023/11/12 01:22:05;;;;;;;22.80;17.60;;;;;;;4.84;100.00;95340.67;107253;1273;24364;-87
2023/11/12 01:24:31;;;;;;;21.30;17.00;;;;;;;4.79;100.00;95341.48;107169;1270;138315;-87
2023/11/12 01:26:58;;;;;;;19.10;14.90;;;;;;;4.75;100.00;95345.80;107218;1277;22597;-87
2023/11/12 01:29:24;;;;;;;22.10;15.50;;;;;;;4.70;100.00;95345.30;107153;1276;139455;-87
2023/11/12 01:31:50;;;;;;;17.60;14.00;;;;;;;4.68;100.00;95348.83;107240;1277;24333;-87
2023/11/12 01:34:16;;;;;;;16.80;13.60;;;;;;;4.65;100.00;95347.78;107314;1272;22605;-86
2023/11/12 01:36:42;;;;;;;15.70;12.30;;;;;;;4.62;100.00;95348.41;107150;1277;138311;-87
2023/11/12 01:39:08;;;;;;;15.70;13.60;;;;;;;4.58;100.00;95348.73;107361;1272;22536;-87
2023/11/12 01:41:34;;;;;;;17.40;12.40;;;;;;;4.53;100.00;95351.24;107138;1277;139488;-87
2023/11/12 01:44:01;;;;;;;15.40;12.50;;;;;;;4.52;100.00;95354.46;107135;1276;24441;-87
2023/11/12 01:46:27;;;;;;;14.00;11.90;;;;;;;4.50;100.00;95356.24;107269;1271;25370;-87
2023/11/12 01:48:56;;;;;;;14.80;12.50;;;;;;;4.48;100.00;95355.81;106867;1277;138649;-87
2023/11/12 01:51:22;;;;;;;15.20;13.30;;;;;;;4.48;100.00;95356.14;107260;1277;25492;-87
2023/11/12 01:53:48;;;;;;;15.80;13.50;;;;;;;4.48;100.00;95361.52;106873;1270;138567;-87
2023/11/12 01:56:14;;;;;;;14.40;12.30;;;;;;;4.48;100.00;95362.86;107250;1273;24446;-87
2023/11/12 01:58:41;;;;;;;14.00;11.50;;;;;;;4.47;100.00;95364.19;107239;1277;24343;-88
2023/11/12 02:01:07;;;;;;;13.00;10.90;;;;;;;4.44;100.00;95364.54;107077;1275;138641;-88
2023/11/12 02:03:33;;;;;;;15.40;11.20;;;;;;;4.39;100.00;95360.39;107143;1277;22530;-87
2023/11/12 02:06:00;;;;;;;13.10;10.90;;;;;;;4.38;100.00;95363.09;106906;1277;138340;-88
2023/11/12 02:08:25;;;;;;;12.90;10.40;;;;;;;4.37;100.00;95361.11;107085;1277;22542;-87
2023/11/12 02:10:52;;;;;;;13.70;11.20;;;;;;;4.37;100.00;95363.19;107119;1278;22534;-87
2023/11/12 02:13:19;;;;;;;15.30;11.90;;;;;;;4.34;100.00;95360.48;109322;1277;139355;-88
2023/11/12 02:15:50;;;;;;;13.60;11.10;;;;;;;4.31;100.00;95363.84;107246;1276;24901;-87
2023/11/12 02:18:16;;;;;;;14.20;12.40;;;;;;;4.30;100.00;95362.98;107166;1276;138402;-88
2023/11/12 02:20:45;;;;;;;12.80;11.10;;;;;;;4.31;100.00;95363.36;107295;1277;22534;-87
2023/11/12 02:23:14;;;;;;;11.60;10.30;;;;;;;4.33;100.00;95364.67;106847;1261;139752;-87
2023/11/12 02:25:44;;;;;;;8.80;7.50;;;;;;;4.35;100.00;95366.39;107249;1277;22529;-87
2023/11/12 02:28:10;;;;;;;8.90;8.00;;;;;;;4.32;100.00;95365.48;107248;1276;25360;-88
2023/11/12 02:30:38;;;;;;;9.00;7.80;;;;;;;4.31;100.00;95364.77;107138;1274;138077;-86
2023/11/12 02:33:06;;;;;;;9.00;7.50;;;;;;;4.29;100.00;95368.27;107245;1275;22632;-87
2023/11/12 02:35:33;;;;;;;7.80;6.60;;;;;;;4.25;100.00;95369.21;109102;1274;138146;-87
2023/11/12 02:37:59;;;;;;;9.90;7.90;;;;;;;4.22;100.00;95368.91;107256;1276;24222;-87
2023/11/12 02:40:25;;;;;;;9.00;6.40;;;;;;;4.22;100.00;95375.15;107204;1275;23302;-87
2023/11/12 02:42:51;;;;;;;6.30;5.30;;;;;;;4.21;100.00;95378.59;107141;1275;137989;-87
2023/11/12 02:45:18;;;;;;;8.60;7.20;;;;;;;4.18;100.00;95379.13;107305;1270;22541;-87
2023/11/12 02:47:44;;;;;;;8.10;6.80;;;;;;;4.18;100.00;95383.78;107159;1277;140270;-89
2023/11/12 02:50:30;;;;;;;8.90;7.70;;;;;;;4.17;100.00;95387.30;107299;1276;25374;-87
2023/11/12 02:53:00;;;;;;;6.90;6.10;;;;;;;4.15;100.00;95389.45;107185;1277;138868;-87
2023/11/12 02:55:33;;;;;;;7.10;6.50;;;;;;;4.13;100.00;95392.94;107289;1277;25229;-87
2023/11/12 02:57:58;;;;;;;5.60;5.10;;;;;;;4.10;100.00;95394.63;110222;1276;22365;-88
2023/11/12 03:00:28;;;;;;;7.90;7.00;;;;;;;4.05;100.00;95399.38;107743;1277;139161;-87
2023/11/12 03:02:58;;;;;;;6.80;6.20;;;;;;;4.04;100.00;95400.92;107268;1277;22553;-87
2023/11/12 03:05:25;;;;;;;6.40;5.70;;;;;;;4.05;100.00;95400.25;107459;1278;139310;-88
2023/11/12 03:07:51;;;;;;;7.60;6.80;;;;;;;4.04;100.00;95396.65;107207;1277;22780;-87
2023/11/12 03:10:17;;;;;;;7.40;6.60;;;;;;;4.02;100.00;95399.96;107052;1268;22646;-87
2023/11/12 03:12:43;;;;;;;9.10;8.20;;;;;;;4.02;100.00;95401.13;107159;1276;137993;-88
2023/11/12 03:15:11;;;;;;;8.50;7.70;;;;;;;4.05;100.00;95404.73;107202;1277;24211;-87
2023/11/12 03:17:37;;;;;;;9.90;8.90;;;;;;;4.07;100.00;95409.67;110110;1277;138878;-88
2023/11/12 03:20:04;;;;;;;10.10;9.10;;;;;;;4.09;100.00;95411.05;110069;1277;22205;-88
2023/11/12 03:22:33;;;;;;;10.20;8.90;;;;;;;4.10;100.00;95417.58;110386;1277;22164;-86
2023/11/12 03:25:00;;;;;;;9.20;8.30;;;;;;;4.10;100.00;95414.16;110146;1277;138986;-86
2023/11/12 03:27:27;;;;;;;10.50;9.50;;;;;;;4.10;100.00;95418.47;110085;1276;22220;-86
2023/11/12 03:29:53;;;;;;;8.10;7.10;;;;;;;4.10;100.00;95421.01;109721;1277;138803;-85
2023/11/12 03:32:21;;;;;;;12.30;10.00;;;;;;;4.09;100.00;95422.00;107032;1277;22671;-86
2023/11/12 03:34:50;;;;;;;10.70;9.60;;;;;;;4.08;100.00;95423.13;107287;1268;22652;-86
2023/11/12 03:37:20;;;;;;;9.00;8.10;;;;;;;4.06;100.00;95425.34;106878;1277;138050;-86
2023/11/12 03:39:47;;;;;;;8.60;7.80;;;;;;;4.04;100.00;95425.21;107073;1272;23282;-86
2023/11/12 03:42:15;;;;;;;7.60;6.90;;;;;;;4.00;100.00;95422.63;110199;1277;138576;-87
2023/11/12 03:44:42;;;;;;;10.00;8.90;;;;;;;3.95;100.00;95426.41;110401;1277;23153;-87
2023/11/12 03:47:08;;;;;;;9.90;8.90;;;;;;;3.92;100.00;95425.52;107629;1276;140219;-86
2023/11/12 03:49:35;;;;;;;7.80;7.10;;;;;;;3.94;100.00;95426.34;107197;1275;22544;-86
2023/11/12 03:52:01;;;;;;;8.70;7.80;;;;;;;3.93;100.00;95424.11;106978;1276;22550;-87
2023/11/12 03:54:27;;;;;;;8.80;7.90;;;;;;;3.90;100.00;95426.89;107086;1276;138013;-87
2023/11/12 03:56:53;;;;;;;7.80;7.10;;;;;;;3.91;100.00;95426.27;107219;1272;22549;-86
2023/11/12 03:59:19;;;;;;;9.10;8.20;;;;;;;3.92;100.00;95425.73;107108;1276;138825;-87
2023/11/12 04:01:45;;;;;;;7.30;6.60;;;;;;;3.91;100.00;95423.52;107257;1275;25363;-87
2023/11/12 04:04:11;;;;;;;9.30;8.50;;;;;;;3.89;100.00;95421.20;107270;1277;22529;-87
2023/11/12 04:06:38;;;;;;;8.40;7.60;;;;;;;3.90;100.00;95421.20;107153;1276;138060;-86
2023/11/12 04:09:04;;;;;;;6.10;5.60;;;;;;;3.91;100.00;95420.34;107287;1277;22675;-86
2023/11/12 04:11:32;;;;;;;7.80;7.10;;;;;;;3.85;100.00;95418.73;107171;1253;138331;-86
2023/11/12 04:13:58;;;;;;;7.10;6.40;;;;;;;3.83;100.00;95421.35;108208;1277;22995;-85
2023/11/12 04:16:24;;;;;;;8.10;7.30;;;;;;;3.82;100.00;95420.90;107219;1271;23671;-87
2023/11/12 04:18:50;;;;;;;9.60;8.70;;;;;;;3.82;100.00;95426.20;107207;1277;138034;-87
2023/11/12 04:21:15;;;;;;;8.50;7.60;;;;;;;3.84;100.00;95427.73;107229;1276;22633;-86
2023/11/12 04:23:44;;;;;;;6.80;6.20;;;;;;;3.84;100.00;95428.08;107174;1277;139212;-86
2023/11/12 04:26:11;;;;;;;7.20;6.50;;;;;;;3.83;100.00;95425.48;107274;1269;25452;-86
2023/11/12 04:28:36;;;;;;;9.80;8.90;;;;;;;3.82;100.00;95427.27;107263;1277;22542;-86
2023/11/12 04:31:03;;;;;;;10.70;9.60;;;;;;;3.84;100.00;95428.59;107135;1277;138410;-87
2023/11/12 04:33:29;;;;;;;10.80;9.90;;;;;;;3.85;100.00;95433.61;107259;1277;24328;-86
2023/11/12 04:35:55;;;;;;;11.20;10.10;;;;;;;3.87;100.00;95439.96;107132;1277;138604;-86
2023/11/12 04:38:21;;;;;;;10.00;9.00;;;;;;;3.88;100.00;95443.20;107236;1271;25542;-87
2023/11/12 04:40:48;;;;;;;7.40;6.70;;;;;;;3.90;100.00;95444.34;107272;1276;26502;-86
2023/11/12 04:43:17;;;;;;;7.00;6.40;;;;;;;3.90;100.00;95446.92;106998;1277;138466;-86
2023/11/12 04:45:43;;;;;;;6.50;6.00;;;;;;;3.89;100.00;95442.59;107066;1277;24730;-87
2023/11/12 04:48:09;;;;;;;7.10;6.40;;;;;;;3.89;100.00;95444.19;107023;1277;138018;-86
2023/11/12 04:50:38;;;;;;;7.30;6.60;;;;;;;3.86;100.00;95444.85;107298;1276;22671;-87
2023/11/12 04:53:05;;;;;;;7.30;6.60;;;;;;;3.80;100.00;95446.31;107127;1277;139785;-86
2023/11/12 04:55:31;;;;;;;9.40;8.50;;;;;;;3.77;100.00;95451.27;107217;1277;22565;-86
2023/11/12 04:57:57;;;;;;;10.00;9.00;;;;;;;3.73;100.00;95454.11;107150;1277;25583;-86
2023/11/12 05:00:23;;;;;;;9.50;8.60;;;;;;;3.73;100.00;95455.45;107121;1277;138158;-86
2023/11/12 05:02:51;;;;;;;10.20;9.30;;;;;;;3.73;100.00;95460.92;107231;1277;22556;-86
2023/11/12 05:05:17;;;;;;;10.40;9.40;;;;;;;3.75;100.00;95467.13;107086;1277;138356;-86
2023/11/12 05:07:43;;;;;;;11.60;10.50;;;;;;;3.76;100.00;95472.15;107295;1268;23203;-86
2023/11/12 05:10:11;;;;;;;11.50;10.30;;;;;;;3.77;100.00;95472.85;107314;1263;22530;-87
2023/11/12 05:12:38;;;;;;;11.60;10.50;;;;;;;3.78;100.00;95475.39;107014;1268;138558;-86
2023/11/12 05:15:08;;;;;;;12.00;10.60;;;;;;;3.80;100.00;95476.67;107225;1277;23219;-86
2023/11/12 05:17:36;;;;;;;10.10;9.00;;;;;;;3.82;100.00;95474.41;107002;1277;139058;-86
2023/11/12 05:20:05;;;;;;;10.70;9.70;;;;;;;3.84;100.00;95477.10;107297;1276;22537;-87
2023/11/12 05:22:32;;;;;;;9.00;8.10;;;;;;;3.87;100.00;95483.27;107219;1277;23909;-86
2023/11/12 05:24:58;;;;;;;10.10;9.20;;;;;;;3.88;100.00;95484.02;107209;1276;138516;-86
2023/11/12 05:27:23;;;;;;;8.00;7.20;;;;;;;3.86;100.00;95486.16;107248;1276;24346;-86
2023/11/12 05:29:52;;;;;;;10.40;9.40;;;;;;;3.81;100.00;95489.39;107179;1275;138141;-86
2023/11/12 05:32:19;;;;;;;9.60;8.80;;;;;;;3.78;100.00;95491.80;107278;1277;22541;-86
2023/11/12 05:34:45;;;;;;;10.40;9.40;;;;;;;3.76;100.00;95490.61;110346;1276;22182;-86
2023/11/12 05:37:11;;;;;;;9.50;8.60;;;;;;;3.75;100.00;95494.73;110246;1277;138603;-87
2023/11/12 05:39:37;;;;;;;8.50;7.70;;;;;;;3.74;100.00;95499.23;110325;1276;22203;-87
2023/11/12 05:42:03;;;;;;;7.80;7.00;;;;;;;3.72;100.00;95500.84;110055;1267;138871;-87
2023/11/12 05:44:29;;;;;;;6.80;5.80;;;;;;;3.70;100.00;95502.19;110286;1277;22461;-87
2023/11/12 05:46:56;;;;;;;6.20;5.70;;;;;;;3.71;100.00;95508.90;110248;1276;22188;-87
2023/11/12 05:49:22;;;;;;;6.90;6.30;;;;;;;3.69;100.00;95508.14;110354;1277;22429;-87
2023/11/12 05:51:47;;;;;;;6.60;6.00;;;;;;;3.69;100.00;95513.23;109886;1265;22553;-86
2023/11/12 05:54:13;;;;;;;6.00;5.20;;;;;;;3.71;100.00;95519.56;106916;1277;138126;-87
2023/11/12 05:56:39;;;;;;;5.50;5.00;;;;;;;3.71;100.00;95518.57;107089;1277;22524;-87
2023/11/12 05:59:05;;;;;;;5.90;5.40;;;;;;;3.72;100.00;95523.20;107185;1277;138753;-86
2023/11/12 06:01:31;;;;;;;4.40;4.10;;;;;;;3.74;100.00;95525.11;107125;1270;24259;-87
2023/11/12 06:04:00;;;;;;;5.40;4.90;;;;;;;3.73;100.00;95527.55;107248;1277;24222;-86
2023/11/12 06:06:26;;;;;;;6.30;5.70;;;;;;;3.74;100.00;95531.27;106907;1275;138118;-86
2023/11/12 06:08:52;;;;;;;6.50;6.00;;;;;;;3.75;100.00;95534.55;107310;1276;23943;-86
2023/11/12 06:11:18;;;;;;;4.70;4.30;;;;;;;3.78;100.00;95537.83;107125;1277;140901;-86
2023/11/12 06:13:44;;;;;;;7.00;6.50;;;;;;;3.80;100.00;95545.46;107220;1277;22567;-87
2023/11/12 06:16:10;;;;;;;6.40;5.90;;;;;;;3.81;100.00;95544.95;107230;1276;22540;-86
2023/11/12 06:18:37;;;;;;;6.40;5.90;;;;;;;3.77;100.00;95548.55;107182;1265;138090;-86
2023/11/12 06:21:03;;;;;;;7.10;6.50;;;;;;;3.76;100.00;95549.88;107278;1277;22533;-86
2023/11/12 06:23:29;;;;;;;6.70;6.10;;;;;;;3.75;100.00;95555.17;107176;1276;138203;-87
2023/11/12 06:25:56;;;;;;;6.10;5.50;;;;;;;3.76;100.00;95553.82;107227;1277;23281;-86
2023/11/12 06:28:22;;;;;;;7.10;6.40;;;;;;;3.73;100.00;95556.56;107235;1277;22517;-87
2023/11/12 06:30:50;;;;;;;6.40;5.80;;;;;;;3.72;100.00;95564.05;107224;1275;138843;-86
2023/11/12 06:33:16;;;;;;;6.20;4.80;;;;;;;3.73;100.00;95565.80;107237;1274;25350;-87
2023/11/12 06:35:43;;;;;;;3.40;3.10;;;;;;;3.72;100.00;95567.54;107118;1275;138093;-87
2023/11/12 06:38:09;;;;;;;2.80;2.60;;;;;;;3.71;100.00;95568.19;107293;1277;24022;-88
2023/11/12 06:40:35;;;;;;;2.70;2.50;;;;;;;3.72;100.00;95570.53;107233;1277;24269;-87
2023/11/12 06:43:01;;;;;;;4.00;3.70;;;;;;;3.71;100.00;95574.33;107195;1265;138264;-88
2023/11/12 06:45:27;;;;;;;3.60;3.20;;;;;;;3.71;100.00;95577.44;107246;1270;23229;-87
2023/11/12 06:47:54;;;;;;;4.10;3.20;;;;;;;3.72;100.00;95576.73;107092;1277;138082;-88
2023/11/12 06:50:19;;;;;;;4.10;3.70;;;;;;;3.69;100.00;95577.79;107279;1273;23300;-87
2023/11/12 06:52:46;;;;;;;3.30;3.00;;;;;;;3.69;100.00;95576.19;107179;1271;24335;-87
2023/11/12 06:55:12;;;;;;;3.00;2.80;;;;;;;3.68;100.00;95581.87;106983;1276;138565;-87
2023/11/12 06:57:38;;;;;;;2.80;2.60;;;;;;;3.68;100.00;95584.63;107203;1276;24082;-87
2023/11/12 07:00:08;;;;;;;3.30;2.90;;;;;;;3.68;100.00;95587.68;107206;1275;138053;-87
2023/11/12 07:02:34;;;;;;;3.30;3.00;;;;;;;3.67;100.00;95591.73;110309;1277;22458;-88
2023/11/12 07:05:00;;;;;;;5.50;4.20;;;;;;;3.66;100.00;95590.35;110110;1278;139415;-88
2023/11/12 07:07:25;;;;;;;5.50;4.70;;;;;;;3.66;100.00;95590.38;110300;1276;22261;-88
2023/11/12 07:09:52;;;;;;;5.60;5.10;;;;;;;3.67;100.00;95590.02;110375;1276;23140;-88
2023/11/12 07:12:18;;;;;;;7.10;6.40;;;;;;;3.70;100.00;95588.67;110229;1277;138415;-88
2023/11/12 07:14:44;;;;;;;6.70;6.10;;;;;;;3.73;100.00;95587.52;110332;1277;22299;-88
2023/11/12 07:17:10;;;;;;;6.90;6.00;;;;;;;3.76;100.00;95589.09;110172;1277;138697;-88
2023/11/12 07:19:36;;;;;;;7.40;6.70;;;;;;;3.78;100.00;95590.44;110304;1277;22317;-88
2023/11/12 07:22:02;;;;;;;8.60;7.80;;;;;;;3.81;100.00;95595.84;110149;1276;22451;-88
2023/11/12 07:24:28;;;;;;;9.30;8.30;;;;;;;3.81;100.00;95594.02;110066;1276;138973;-88
2023/11/12 07:26:54;;;;;;;8.30;6.90;;;;;;;3.83;100.00;95595.77;110062;1277;22959;-88
2023/11/12 07:29:21;;;;;;;8.40;7.60;;;;;;;3.79;100.00;95598.37;109995;1278;139137;-88
2023/11/12 07:31:47;;;;;;;7.40;6.70;;;;;;;3.81;100.00;95601.97;110156;1278;22227;-88
2023/11/12 07:34:13;;;;;;;8.80;8.00;;;;;;;3.81;100.00;95601.90;110303;1277;22862;-88
2023/11/12 07:36:39;;;;;;;8.40;7.60;;;;;;;3.84;100.00;95606.91;110260;1277;138492;-88
2023/11/12 07:39:05;;;;;;;9.70;8.80;;;;;;;3.88;100.00;95607.55;110381;1276;22203;-88
2023/11/12 07:41:32;;;;;;;12.10;11.00;;;;;;;3.90;100.00;95614.89;110232;1277;139446;-87
2023/11/12 07:43:58;;;;;;;10.40;9.00;;;;;;;3.91;100.00;95615.45;110162;1277;23020;-88
2023/11/12 07:46:23;;;;;;;13.40;12.00;;;;;;;3.92;100.00;95619.31;110320;1277;22218;-88
2023/11/12 07:48:50;;;;;;;11.10;10.10;;;;;;;3.95;100.00;95619.20;108893;1277;139515;-87
2023/11/12 07:51:16;;;;;;;8.90;7.90;;;;;;;3.97;100.00;95621.78;107218;1277;25353;-87
2023/11/12 07:53:42;;;;;;;7.40;6.60;;;;;;;3.96;100.00;95623.67;107131;1276;138212;-87
2023/11/12 07:56:11;;;;;;;7.40;6.10;;;;;;;3.97;100.00;95624.31;107248;1277;24297;-86
2023/11/12 07:58:37;;;;;;;8.60;6.80;;;;;;;3.98;100.00;95621.30;107220;1278;22550;-88
2023/11/12 08:01:03;;;;;;;10.60;9.50;;;;;;;3.98;100.00;95622.42;107196;1277;138546;-87
2023/11/12 08:03:29;;;;;;;9.80;8.80;;;;;;;3.97;100.00;95625.50;107268;1277;22631;-87
2023/11/12 08:05:56;;;;;;;64.40;32.30;;;;;;;3.97;100.00;95628.04;107099;1277;138454;-87
2023/11/12 08:08:23;;;;;;;22.20;13.30;;;;;;;3.98;100.00;95626.95;107281;1277;22552;-88
2023/11/12 08:10:49;;;;;;;15.00;12.30;;;;;;;4.00;100.00;95630.52;107261;1277;22541;-87
2023/11/12 08:13:16;;;;;;;10.20;9.10;;;;;;;4.01;100.00;95632.98;106944;1278;138354;-87
2023/11/12 08:15:42;;;;;;;20.00;15.20;;;;;;;4.00;100.00;95632.92;107209;1277;22541;-87
2023/11/12 08:18:08;;;;;;;15.30;13.70;;;;;;;4.00;100.00;95637.81;107172;1277;138432;-87
2023/11/12 08:20:35;;;;;;;35.10;26.30;;;;;;;4.01;100.00;95634.82;107332;1276;24214;-87
2023/11/12 08:23:02;;;;;;;15.60;13.30;;;;;;;4.02;100.00;95636.10;107201;1276;139177;-87
2023/11/12 08:25:28;;;;;;;11.00;9.90;;;;;;;4.03;100.00;95638.09;107269;1268;22569;-87
2023/11/12 08:27:56;;;;;;;9.80;8.90;;;;;;;4.00;100.00;95646.41;107277;1270;22539;-87
2023/11/12 08:30:23;;;;;;;11.00;9.90;;;;;;;3.98;100.00;95651.27;107172;1277;139246;-87
2023/11/12 08:32:49;;;;;;;12.10;10.00;;;;;;;3.97;100.00;95650.36;107273;1277;22527;-87
2023/11/12 08:35:15;;;;;;;12.00;9.90;;;;;;;3.96;100.00;95651.23;107159;1276;139845;-87
2023/11/12 08:37:42;;;;;;;11.80;9.90;;;;;;;3.99;100.00;95654.71;107124;1276;165426;-87
2023/11/12 08:40:09;;;;;;;12.10;9.90;;;;;;;4.03;100.00;95653.10;107004;1277;22534;-87
2023/11/12 08:42:35;;;;;;;13.00;11.50;;;;;;;4.03;100.00;95655.35;107154;1277;138679;-87
2023/11/12 08:45:04;;;;;;;13.00;11.70;;;;;;;4.03;100.00;95661.00;107300;1277;22567;-88
2023/11/12 08:47:32;;;;;;;11.30;10.20;;;;;;;4.04;100.00;95662.23;107098;1262;138471;-87
2023/11/12 08:49:59;;;;;;;12.40;11.10;;;;;;;4.06;100.00;95663.98;107287;1276;26475;-87
2023/11/12 08:52:25;;;;;;;10.40;9.40;;;;;;;4.07;100.00;95668.62;107269;1270;22699;-88
2023/11/12 08:54:51;;;;;;;13.20;11.80;;;;;;;4.09;100.00;95674.23;106919;1277;138584;-87
2023/11/12 08:57:18;;;;;;;15.50;13.90;;;;;;;4.11;100.00;95679.54;107224;1277;22546;-87
2023/11/12 08:59:44;;;;;;;18.70;15.80;;;;;;;4.13;100.00;95682.59;107157;1277;138337;-88
2023/11/12 09:02:11;;;;;;;17.70;15.00;;;;;;;4.14;100.00;95682.81;107252;1277;24910;-88
2023/11/12 09:04:38;;;;;;;14.60;11.80;;;;;;;4.15;100.00;95682.69;107224;1276;22552;-87
2023/11/12 09:07:04;;;;;;;19.30;16.70;;;;;;;4.16;100.00;95689.63;107100;1277;138744;-87
2023/11/12 09:09:32;;;;;;;17.60;14.10;;;;;;;4.17;100.00;95692.77;107260;1277;22522;-87
2023/11/12 09:11:58;;;;;;;17.70;15.10;;;;;;;4.18;100.00;95693.91;107104;1277;138329;-87
2023/11/12 09:14:24;;;;;;;17.00;15.20;;;;;;;4.16;100.00;95695.06;107262;1277;24336;-87
2023/11/12 09:16:51;;;;;;;16.40;14.70;;;;;;;4.19;100.00;95694.67;107239;1277;22542;-87
2023/11/12 09:19:16;;;;;;;21.70;19.40;;;;;;;4.22;100.00;95695.52;107122;1276;138166;-88
2023/11/12 09:21:42;;;;;;;19.00;16.80;;;;;;;4.26;100.00;95695.09;107186;1277;22660;-87
2023/11/12 09:24:09;;;;;;;15.90;14.20;;;;;;;4.30;100.00;95696.08;107188;1267;138373;-87
2023/11/12 09:26:34;;;;;;;17.00;15.20;;;;;;;4.31;100.00;95694.57;107214;1270;24404;-87
2023/11/12 09:29:00;;;;;;;13.00;11.60;;;;;;;4.34;100.00;95695.63;107089;1274;139394;-87
2023/11/12 09:31:28;;;;;;;10.90;9.20;;;;;;;4.37;100.00;95691.89;107012;1256;24255;-87
2023/11/12 09:33:54;;;;;;;10.50;9.40;;;;;;;4.40;100.00;95690.91;107268;1276;24302;-87
2023/11/12 09:36:20;;;;;;;10.90;9.60;;;;;;;4.45;100.00;95691.42;107120;1277;138260;-87
2023/11/12 09:38:46;;;;;;;11.00;9.30;;;;;;;4.49;100.00;95687.70;107272;1277;24232;-87
2023/11/12 09:41:12;;;;;;;8.90;8.00;;;;;;;4.53;100.00;95692.77;107131;1277;138427;-88
2023/11/12 09:43:38;;;;;;;9.00;7.40;;;;;;;4.56;100.00;95694.06;106986;1279;22563;-87
2023/11/12 09:46:08;;;;;;;10.80;9.70;;;;;;;4.56;100.00;95688.38;107156;1276;22584;-87
2023/11/12 09:48:35;;;;;;;23.40;15.20;;;;;;;4.58;100.00;95691.66;107141;1276;138179;-87
2023/11/12 09:51:05;;;;;;;17.40;12.30;;;;;;;4.62;100.00;95690.48;107411;1264;25162;-88
2023/11/12 09:53:36;;;;;;;10.40;8.90;;;;;;;4.69;100.00;95690.38;107137;1277;139144;-87
2023/11/12 09:56:09;;;;;;;9.10;8.20;;;;;;;4.73;100.00;95687.11;110052;1277;22192;-88
2023/11/12 09:58:36;;;;;;;;;;;;;;;4.76;100.00;95688.94;108885;1277;24251;-87
2023/11/12 10:01:02;;;;;;;8.80;7.80;;;;;;;4.78;100.00;95687.71;107209;1276;125195;-87
2023/11/12 10:03:28;;;;;;;9.30;7.40;;;;;;;4.83;100.00;95685.92;106919;1277;25294;-87
2023/11/12 10:05:54;;;;;;;8.80;7.90;;;;;;;4.91;100.00;95688.23;107161;1277;138028;-87
2023/11/12 10:08:20;;;;;;;9.10;7.80;;;;;;;4.95;100.00;95686.92;107293;1277;23271;-87
2023/11/12 10:10:47;;;;;;;11.70;9.00;;;;;;;4.98;100.00;95688.39;107251;1276;25567;-87
2023/11/12 10:13:13;;;;;;;13.00;10.00;;;;;;;5.02;100.00;95686.58;107140;1277;138014;-87
2023/11/12 10:15:40;;;;;;;8.60;7.60;;;;;;;5.06;100.00;95686.30;107259;1275;22554;-88
2023/11/12 10:18:09;;;;;;;11.10;8.10;;;;;;;5.08;100.00;95687.48;107117;1270;138127;-87
2023/11/12 10:20:38;;;;;;;10.20;9.20;;;;;;;5.10;100.00;95689.14;107158;1277;22546;-87
2023/11/12 10:23:04;;;;;;;14.10;12.60;;;;;;;5.12;100.00;95690.23;110183;1276;139630;-88
2023/11/12 10:25:41;;;;;;;9.50;8.50;;;;;;;5.20;100.00;95691.86;108623;1277;25390;-88
2023/11/12 10:28:08;;;;;;;8.90;7.80;;;;;;;5.26;100.00;95692.90;107314;1270;23006;-87
2023/11/12 10:30:39;;;;;;;15.10;11.50;;;;;;;5.31;100.00;95690.27;107198;1276;138050;-88
2023/11/12 10:33:26;;;;;;;7.60;6.70;;;;;;;5.36;100.00;95689.41;107292;1276;22637;-87
2023/11/12 10:35:52;;;;;;;7.30;6.40;;;;;;;5.40;100.00;95688.77;107074;1277;138061;-87
2023/11/12 10:38:18;;;;;;;7.40;5.90;;;;;;;5.43;100.00;95686.54;107260;1277;25380;-88
2023/11/12 10:41:04;;;;;;;5.70;5.10;;;;;;;5.51;100.00;95688.50;107228;1276;22549;-87
2023/11/12 10:43:30;;;;;;;5.70;5.00;;;;;;;5.57;100.00;95691.45;107276;1276;23396;-88
2023/11/12 10:45:58;;;;;;;7.60;6.50;;;;;;;5.56;100.00;95692.16;107167;1277;25466;-88
2023/11/12 10:48:36;;;;;;;11.30;7.50;;;;;;;5.56;100.00;95697.59;109990;1277;139090;-88
2023/11/12 10:51:10;;;;;;;11.00;7.70;;;;;;;5.55;100.00;95694.39;108327;1277;23149;-87
2023/11/12 10:53:36;;;;;;;7.60;6.40;;;;;;;5.58;100.00;95688.71;106914;1276;139455;-86
2023/11/12 10:56:04;;;;;;;5.50;5.00;;;;;;;5.60;100.00;95686.76;107035;1276;23623;-87
2023/11/12 10:58:30;;;;;;;9.00;6.10;;;;;;;5.59;100.00;95684.67;107082;1270;22543;-88
2023/11/12 11:01:01;;;;;;;7.70;6.00;;;;;;;5.60;100.00;95682.83;107181;1276;138010;-87
2023/11/12 11:03:31;;;;;;;6.60;6.00;;;;;;;5.60;100.00;95682.95;107076;1270;22589;-87
2023/11/12 11:05:59;;;;;;;6.00;5.20;;;;;;;5.61;100.00;95681.11;106925;1277;139372;-87
2023/11/12 11:08:26;;;;;;;11.70;7.50;;;;;;;5.65;100.00;95679.23;107074;1277;24226;-86
2023/11/12 11:10:52;;;;;;;12.30;7.30;;;;;;;5.70;100.00;95685.46;107267;1266;22571;-87
2023/11/12 11:13:19;;;;;;;7.60;6.40;;;;;;;5.76;100.00;95684.21;106994;1278;138155;-86